createdAt,value
2022-09-12T02:11:49.163Z,0.00
2022-09-12T02:12:49.553Z,0.00
2022-09-12T02:13:49.523Z,0.00
2022-09-12T02:14:49.611Z,0.00
2022-09-12T02:15:49.110Z,0.00
2022-09-12T02:16:49.533Z,0.00
2022-09-12T02:17:49.512Z,0.00
2022-09-12T02:18:49.331Z,0.00
2022-09-12T02:19:49.544Z,0.00
2022-09-12T02:20:49.559Z,0.00
2022-09-12T02:21:49.222Z,0.00
2022-09-12T02:22:49.124Z,0.00
2022-09-12T02:23:49.427Z,0.00
2022-09-12T02:24:49.466Z,0.00
2022-09-12T02:25:49.465Z,0.00
2022-09-12T02:26:49.033Z,0.00
2022-09-12T02:27:49.422Z,0.00
2022-09-12T02:28:49.339Z,0.00
2022-09-12T02:29:49.524Z,0.00
2022-09-12T02:30:49.125Z,0.00
2022-09-12T02:31:49.343Z,0.00
2022-09-12T02:32:49.313Z,0.00
2022-09-12T02:33:49.304Z,0.00
2022-09-12T02:34:48.980Z,0.00
2022-09-12T02:35:49.403Z,0.00
2022-09-12T02:36:49.558Z,0.00
2022-09-12T02:37:49.348Z,0.00
2022-09-12T02:38:49.231Z,0.00
2022-09-12T02:39:49.482Z,0.00
2022-09-12T02:40:49.337Z,0.00
2022-09-12T02:41:49.170Z,0.00
2022-09-12T02:42:49.346Z,0.00
2022-09-12T02:43:49.184Z,0.00
2022-09-12T02:44:49.429Z,0.00
2022-09-12T02:45:49.279Z,0.00
2022-09-12T02:46:49.302Z,0.00
2022-09-12T02:47:49.002Z,0.00
2022-09-12T02:48:49.299Z,0.00
2022-09-12T02:49:49.431Z,0.00
2022-09-12T02:50:48.883Z,0.00
2022-09-12T02:51:49.135Z,0.00
2022-09-12T02:52:49.220Z,0.00
2022-09-12T02:53:49.176Z,0.00
2022-09-12T02:54:49.159Z,0.00
2022-09-12T02:55:49.163Z,0.00
2022-09-12T02:56:48.871Z,0.00
2022-09-12T02:57:49.541Z,0.00
2022-09-12T02:58:49.179Z,0.00
2022-09-12T02:59:49.085Z,0.00
2022-09-12T03:00:49.071Z,0.00
2022-09-12T03:01:49.435Z,0.00
2022-09-12T03:02:49.098Z,0.00
2022-09-12T03:03:48.958Z,0.00
2022-09-12T03:04:49.062Z,0.00
2022-09-12T03:05:49.017Z,0.00
2022-09-12T03:06:49.150Z,0.00
2022-09-12T03:07:49.048Z,0.00
2022-09-12T03:08:49.016Z,0.00
2022-09-12T03:09:49.035Z,0.00
2022-09-12T03:10:49.029Z,0.00
2022-09-12T03:11:49.165Z,0.00
2022-09-12T03:12:49.075Z,0.00
2022-09-12T03:13:49.043Z,0.00
2022-09-12T03:14:49.082Z,0.00
2022-09-12T03:15:48.679Z,0.00
2022-09-12T03:16:49.017Z,0.00
2022-09-12T03:17:48.918Z,0.00
2022-09-12T03:18:48.914Z,0.00
2022-09-12T03:19:49.070Z,0.00
2022-09-12T03:20:48.922Z,0.00
2022-09-12T03:21:49.005Z,0.00
2022-09-12T03:22:51.095Z,0.00
2022-09-12T03:23:48.801Z,0.00
2022-09-12T03:24:48.987Z,0.00
2022-09-12T03:25:48.602Z,0.00
2022-09-12T03:26:49.107Z,0.00
2022-09-12T03:27:49.055Z,0.00
2022-09-12T03:28:48.914Z,0.00
2022-09-12T03:29:48.857Z,0.00
2022-09-12T03:30:48.849Z,0.00
2022-09-12T03:31:48.942Z,0.00
2022-09-12T03:32:48.974Z,0.00
2022-09-12T03:33:49.056Z,0.00
2022-09-12T03:34:48.835Z,0.00
2022-09-12T03:35:49.344Z,0.00
2022-09-12T03:36:48.548Z,0.00
2022-09-12T03:37:48.823Z,0.00
2022-09-12T03:38:49.096Z,0.00
2022-09-12T03:39:48.938Z,0.00
2022-09-12T03:40:54.052Z,0.00
2022-09-12T03:41:48.744Z,0.00
2022-09-12T03:42:48.912Z,0.00
2022-09-12T03:43:48.683Z,0.00
2022-09-12T03:44:48.691Z,0.00
2022-09-12T03:45:48.718Z,0.00
2022-09-12T03:46:48.541Z,0.00
2022-09-12T03:47:48.716Z,0.00
2022-09-12T03:48:49.022Z,0.00
2022-09-12T03:49:48.783Z,0.00
2022-09-12T03:50:48.695Z,0.00
2022-09-12T03:51:48.679Z,0.00
2022-09-12T03:52:48.769Z,0.00
2022-09-12T03:53:48.399Z,0.00
2022-09-12T03:54:48.609Z,0.00
2022-09-12T03:55:48.681Z,0.00
2022-09-12T03:56:48.631Z,0.00
2022-09-12T03:57:48.600Z,0.00
2022-09-12T03:58:48.618Z,0.00
2022-09-12T03:59:48.693Z,0.00
2022-09-12T04:00:48.646Z,0.00
2022-09-12T04:01:48.688Z,0.00
2022-09-12T04:02:48.580Z,0.00
2022-09-12T04:03:48.414Z,0.00
2022-09-12T04:04:48.370Z,0.00
2022-09-12T04:05:48.309Z,0.00
2022-09-12T04:06:48.656Z,0.00
2022-09-12T04:07:48.305Z,0.00
2022-09-12T04:08:48.840Z,0.00
2022-09-12T04:09:48.583Z,0.00
2022-09-12T04:10:48.443Z,0.00
2022-09-12T04:11:48.785Z,0.00
2022-09-12T04:12:48.503Z,0.00
2022-09-12T04:13:48.708Z,0.00
2022-09-12T04:14:48.521Z,0.00
2022-09-12T04:15:48.504Z,0.00
2022-09-12T04:16:48.463Z,0.00
2022-09-12T04:17:48.341Z,0.00
2022-09-12T04:18:48.831Z,0.00
2022-09-12T04:19:48.456Z,0.00
2022-09-12T04:20:48.386Z,0.00
2022-09-12T04:21:48.355Z,4.00
2022-09-12T04:22:48.523Z,0.00
2022-09-12T04:23:48.487Z,0.00
2022-09-12T04:24:48.346Z,4.00
2022-09-12T04:25:48.419Z,0.00
2022-09-12T04:26:48.409Z,4.00
2022-09-12T04:27:48.422Z,4.00
2022-09-12T04:28:48.484Z,4.00
2022-09-12T04:29:48.230Z,4.00
2022-09-12T04:30:48.386Z,4.00
2022-09-12T04:31:48.484Z,8.00
2022-09-12T04:32:48.595Z,8.00
2022-09-12T04:33:48.041Z,8.00
2022-09-12T04:34:48.086Z,8.00
2022-09-12T04:35:48.403Z,12.00
2022-09-12T04:36:48.008Z,12.00
2022-09-12T04:37:47.997Z,16.00
2022-09-12T04:38:48.343Z,20.00
2022-09-12T04:39:48.311Z,20.00
2022-09-12T04:40:48.225Z,20.00
2022-09-12T04:41:48.261Z,24.00
2022-09-12T04:42:48.129Z,24.00
2022-09-12T04:43:48.271Z,28.00
2022-09-12T04:44:48.139Z,32.00
2022-09-12T04:45:48.117Z,36.00
2022-09-12T04:46:48.026Z,40.00
2022-09-12T04:47:47.954Z,44.00
2022-09-12T04:48:47.951Z,48.00
2022-09-12T04:49:48.227Z,52.00
2022-09-12T04:50:48.208Z,56.00
2022-09-12T04:51:48.066Z,60.00
2022-09-12T04:52:48.867Z,60.00
2022-09-12T04:53:47.887Z,68.00
2022-09-12T04:54:47.947Z,64.00
2022-09-12T04:55:47.919Z,72.00
2022-09-12T04:56:48.193Z,80.00
2022-09-12T04:57:48.104Z,84.00
2022-09-12T04:58:48.186Z,92.00
2022-09-12T04:59:48.175Z,100.00
2022-09-12T05:00:47.822Z,100.00
2022-09-12T05:01:48.036Z,108.00
2022-09-12T05:02:48.236Z,116.00
2022-09-12T05:03:47.798Z,120.00
2022-09-12T05:04:47.897Z,124.00
2022-09-12T05:05:47.976Z,132.00
2022-09-12T05:06:47.919Z,128.00
2022-09-12T05:07:47.790Z,136.00
2022-09-12T05:08:47.858Z,136.00
2022-09-12T05:09:47.763Z,144.00
2022-09-12T05:10:47.730Z,156.00
2022-09-12T05:12:04.690Z,164.00
2022-09-12T05:12:47.736Z,164.00
2022-09-12T05:13:47.709Z,176.00
2022-09-12T05:14:47.743Z,184.00
2022-09-12T05:15:47.716Z,192.00
2022-09-12T05:16:49.557Z,208.00
2022-09-12T05:17:47.768Z,212.00
2022-09-12T05:18:47.965Z,220.00
2022-09-12T05:19:47.662Z,228.00
2022-09-12T05:20:47.788Z,240.00
2022-09-12T05:21:47.678Z,248.00
2022-09-12T05:22:47.741Z,256.00
2022-09-12T05:23:47.658Z,264.00
2022-09-12T05:24:50.600Z,268.00
2022-09-12T05:25:47.676Z,284.00
2022-09-12T05:26:47.607Z,288.00
2022-09-12T05:27:50.549Z,292.00
2022-09-12T05:28:47.698Z,300.00
2022-09-12T05:29:47.614Z,312.00
2022-09-12T05:30:47.800Z,328.00
2022-09-12T05:31:47.572Z,336.00
2022-09-12T05:32:47.563Z,340.00
2022-09-12T05:33:47.617Z,348.00
2022-09-12T05:34:47.694Z,364.00
2022-09-12T05:35:47.565Z,372.00
2022-09-12T05:36:47.545Z,380.00
2022-09-12T05:37:47.550Z,388.00
2022-09-12T05:38:47.522Z,408.00
2022-09-12T05:39:47.593Z,404.00
2022-09-12T05:40:47.724Z,420.00
2022-09-12T05:41:47.770Z,456.00
2022-09-12T05:42:47.685Z,480.00
2022-09-12T05:43:47.487Z,476.00
2022-09-12T05:44:47.493Z,464.00
2022-09-12T05:45:47.498Z,448.00
2022-09-12T05:46:47.450Z,452.00
2022-09-12T05:47:47.425Z,452.00
2022-09-12T05:48:47.643Z,452.00
2022-09-12T05:49:47.418Z,452.00
2022-09-12T05:50:47.828Z,468.00
2022-09-12T05:51:47.408Z,480.00
2022-09-12T05:52:47.397Z,484.00
2022-09-12T05:53:47.391Z,500.00
2022-09-12T05:54:47.379Z,532.00
2022-09-12T05:55:47.391Z,556.00
2022-09-12T05:56:47.390Z,552.00
2022-09-12T05:57:47.363Z,580.00
2022-09-12T05:58:47.470Z,632.00
2022-09-12T05:59:47.328Z,688.00
2022-09-12T06:00:47.326Z,732.00
2022-09-12T06:01:47.423Z,772.00
2022-09-12T06:02:47.324Z,720.00
2022-09-12T06:03:47.543Z,700.00
2022-09-12T06:04:47.343Z,720.00
2022-09-12T06:05:50.553Z,748.00
2022-09-12T06:06:47.285Z,780.00
2022-09-12T06:07:47.273Z,804.00
2022-09-12T06:08:47.401Z,824.00
2022-09-12T06:09:47.256Z,844.00
2022-09-12T06:10:47.254Z,864.00
2022-09-12T06:11:47.265Z,928.00
2022-09-12T06:12:47.228Z,944.00
2022-09-12T06:13:47.258Z,936.00
2022-09-12T06:14:47.223Z,956.00
2022-09-12T06:15:47.362Z,948.00
2022-09-12T06:16:47.329Z,916.00
2022-09-12T06:17:51.191Z,892.00
2022-09-12T06:18:47.459Z,940.00
2022-09-12T06:19:47.175Z,1004.00
2022-09-12T06:20:47.177Z,1032.00
2022-09-12T06:21:47.147Z,1084.00
2022-09-12T06:22:47.155Z,1084.00
2022-09-12T06:23:47.144Z,1088.00
2022-09-12T06:24:47.137Z,1084.00
2022-09-12T06:25:47.128Z,1016.00
2022-09-12T06:26:47.154Z,996.00
2022-09-12T06:27:47.171Z,1052.00
2022-09-12T06:28:47.245Z,1060.00
2022-09-12T06:29:47.105Z,1032.00
2022-09-12T06:30:47.139Z,1016.00
2022-09-12T06:31:47.086Z,1028.00
2022-09-12T06:32:47.303Z,1056.00
2022-09-12T06:33:47.049Z,1088.00
2022-09-12T06:34:47.097Z,1100.00
2022-09-12T06:35:47.063Z,1168.00
2022-09-12T06:36:47.052Z,1220.00
2022-09-12T06:37:47.024Z,1256.00
2022-09-12T06:38:47.139Z,1284.00
2022-09-12T06:39:47.140Z,1256.00
2022-09-12T06:40:47.019Z,1216.00
2022-09-12T06:41:47.007Z,1264.00
2022-09-12T06:42:46.998Z,1292.00
2022-09-12T06:43:47.040Z,1300.00
2022-09-12T06:44:46.980Z,1324.00
2022-09-12T06:45:47.023Z,1344.00
2022-09-12T06:46:46.965Z,1304.00
2022-09-12T06:47:46.945Z,1344.00
2022-09-12T06:48:46.925Z,1372.00
2022-09-12T06:49:46.914Z,1352.00
2022-09-12T06:50:46.925Z,1348.00
2022-09-12T06:51:46.914Z,1324.00
2022-09-12T06:52:46.912Z,1356.00
2022-09-12T06:53:46.904Z,1328.00
2022-09-12T06:54:46.907Z,1364.00
2022-09-12T06:55:47.021Z,1424.00
2022-09-12T06:56:46.952Z,1392.00
2022-09-12T06:57:46.870Z,1376.00
2022-09-12T06:58:47.006Z,1440.00
2022-09-12T06:59:46.881Z,1460.00
2022-09-12T07:00:46.878Z,1480.00
2022-09-12T07:01:46.854Z,1548.00
2022-09-12T07:02:46.819Z,1584.00
2022-09-12T07:03:46.811Z,1556.00
2022-09-12T07:04:46.820Z,1520.00
2022-09-12T07:05:46.804Z,1508.00
2022-09-12T07:06:46.779Z,1544.00
2022-09-12T07:07:46.786Z,1564.00
2022-09-12T07:08:46.778Z,1560.00
2022-09-12T07:09:46.756Z,1496.00
2022-09-12T07:10:46.760Z,1492.00
2022-09-12T07:11:46.765Z,1512.00
2022-09-12T07:12:46.740Z,1560.00
2022-09-12T07:13:46.936Z,1556.00
2022-09-12T07:14:46.720Z,1532.00
2022-09-12T07:15:46.731Z,1520.00
2022-09-12T07:16:46.734Z,1632.00
2022-09-12T07:17:46.693Z,1636.00
2022-09-12T07:18:46.775Z,1724.00
2022-09-12T07:19:46.697Z,1632.00
2022-09-12T07:20:46.686Z,1624.00
2022-09-12T07:21:46.692Z,1664.00
2022-09-12T07:22:46.681Z,1696.00
2022-09-12T07:23:46.998Z,1768.00
2022-09-12T07:24:46.657Z,1904.00
2022-09-12T07:25:46.649Z,2000.00
2022-09-12T07:26:46.640Z,2132.00
2022-09-12T07:27:51.010Z,2172.00
2022-09-12T07:28:46.601Z,2192.00
2022-09-12T07:29:46.608Z,2180.00
2022-09-12T07:30:46.632Z,2168.00
2022-09-12T07:31:46.618Z,2288.00
2022-09-12T07:32:46.591Z,2348.00
2022-09-12T07:33:49.079Z,2256.00
2022-09-12T07:34:46.561Z,2196.00
2022-09-12T07:35:46.586Z,2340.00
2022-09-12T07:36:46.548Z,2444.00
2022-09-12T07:37:46.535Z,2584.00
2022-09-12T07:38:46.598Z,2660.00
2022-09-12T07:39:46.540Z,2788.00
2022-09-12T07:40:46.516Z,2852.00
2022-09-12T07:41:46.506Z,2768.00
2022-09-12T07:42:46.492Z,2744.00
2022-09-12T07:43:46.637Z,2740.00
2022-09-12T07:44:46.489Z,2660.00
2022-09-12T07:45:46.558Z,2616.00
2022-09-12T07:46:46.476Z,2652.00
2022-09-12T07:47:46.471Z,2680.00
2022-09-12T07:48:46.457Z,2768.00
2022-09-12T07:49:46.441Z,3020.00
2022-09-12T07:50:46.442Z,2744.00
2022-09-12T07:51:46.425Z,2760.00
2022-09-12T07:52:46.431Z,2944.00
2022-09-12T07:53:46.494Z,2792.00
2022-09-12T07:54:46.398Z,2688.00
2022-09-12T07:55:46.394Z,2644.00
2022-09-12T07:56:46.378Z,2668.00
2022-09-12T07:57:46.373Z,2644.00
2022-09-12T07:58:46.393Z,2836.00
2022-09-12T07:59:52.853Z,3152.00
2022-09-12T08:00:46.337Z,3400.00
2022-09-12T08:01:46.371Z,3264.00
2022-09-12T08:02:46.583Z,3088.00
2022-09-12T08:03:46.406Z,2996.00
2022-09-12T08:04:46.331Z,2916.00
2022-09-12T08:05:46.312Z,2952.00
2022-09-12T08:06:46.301Z,2928.00
2022-09-12T08:07:46.286Z,3020.00
2022-09-12T08:08:46.285Z,3132.00
2022-09-12T08:09:46.273Z,3216.00
2022-09-12T08:10:46.465Z,3312.00
2022-09-12T08:11:46.277Z,3560.00
2022-09-12T08:12:46.261Z,3592.00
2022-09-12T08:13:46.384Z,3656.00
2022-09-12T08:14:46.236Z,3624.00
2022-09-12T08:15:46.282Z,3720.00
2022-09-12T08:16:46.220Z,3728.00
2022-09-12T08:17:46.222Z,3904.00
2022-09-12T08:18:46.209Z,3812.00
2022-09-12T08:19:46.224Z,4128.00
2022-09-12T08:20:46.187Z,3780.00
2022-09-12T08:21:46.178Z,4028.00
2022-09-12T08:22:46.187Z,4340.00
2022-09-12T08:23:46.286Z,4900.00
2022-09-12T08:24:46.162Z,6172.00
2022-09-12T08:25:46.148Z,6008.00
2022-09-12T08:26:46.152Z,5816.00
2022-09-12T08:27:46.312Z,5452.00
2022-09-12T08:28:46.146Z,6180.00
2022-09-12T08:29:46.131Z,6244.00
2022-09-12T08:30:46.172Z,5552.00
2022-09-12T08:31:46.102Z,5756.00
2022-09-12T08:32:46.112Z,6040.00
2022-09-12T08:33:46.213Z,5944.00
2022-09-12T08:34:46.114Z,5736.00
2022-09-12T08:35:46.128Z,5856.00
2022-09-12T08:36:46.073Z,6380.00
2022-09-12T08:37:46.070Z,8356.00
2022-09-12T08:38:46.072Z,8584.00
2022-09-12T08:39:46.082Z,6564.00
2022-09-12T08:40:46.041Z,6696.00
2022-09-12T08:41:46.049Z,6804.00
2022-09-12T08:42:46.026Z,7340.00
2022-09-12T08:43:46.205Z,7112.00
2022-09-12T08:44:46.017Z,6664.00
2022-09-12T08:45:46.033Z,7720.00
2022-09-12T08:46:46.010Z,8108.00
2022-09-12T08:47:46.015Z,7388.00
2022-09-12T08:48:45.995Z,6760.00
2022-09-12T08:49:45.984Z,7480.00
2022-09-12T08:50:49.830Z,7180.00
2022-09-12T08:51:45.983Z,6664.00
2022-09-12T08:52:45.962Z,6856.00
2022-09-12T08:53:46.107Z,6856.00
2022-09-12T08:54:45.949Z,6712.00
2022-09-12T08:55:45.940Z,6076.00
2022-09-12T08:56:45.939Z,6732.00
2022-09-12T08:57:46.121Z,7032.00
2022-09-12T08:58:45.923Z,6716.00
2022-09-12T08:59:45.920Z,6764.00
2022-09-12T09:00:45.901Z,6896.00
2022-09-12T09:01:45.998Z,7172.00
2022-09-12T09:02:45.976Z,8040.00
2022-09-12T09:03:45.891Z,7480.00
2022-09-12T09:04:45.879Z,7908.00
2022-09-12T09:05:45.879Z,7656.00
2022-09-12T09:06:45.866Z,7156.00
2022-09-12T09:07:45.897Z,7212.00
2022-09-12T09:08:45.873Z,8232.00
2022-09-12T09:09:46.054Z,8260.00
2022-09-12T09:10:45.847Z,9036.00
2022-09-12T09:11:45.847Z,9112.00
2022-09-12T09:12:45.840Z,9392.00
2022-09-12T09:13:45.907Z,9592.00
2022-09-12T09:14:45.816Z,9736.00
2022-09-12T09:15:45.883Z,9588.00
2022-09-12T09:16:45.805Z,10492.00
2022-09-12T09:17:45.786Z,10796.00
2022-09-12T09:18:45.788Z,10828.00
2022-09-12T09:19:50.125Z,10688.00
2022-09-12T09:20:45.775Z,10516.00
2022-09-12T09:21:45.774Z,11916.00
2022-09-12T09:22:45.773Z,12156.00
2022-09-12T09:23:45.863Z,11196.00
2022-09-12T09:24:45.770Z,11824.00
2022-09-12T09:25:45.742Z,11992.00
2022-09-12T09:26:45.753Z,12732.00
2022-09-12T09:27:45.731Z,12604.00
2022-09-12T09:28:45.730Z,13244.00
2022-09-12T09:29:45.737Z,13208.00
2022-09-12T09:30:45.776Z,12372.00
2022-09-12T09:31:45.735Z,12452.00
2022-09-12T09:32:45.710Z,12740.00
2022-09-12T09:33:45.877Z,12400.00
2022-09-12T09:34:45.694Z,11920.00
2022-09-12T09:35:45.697Z,11160.00
2022-09-12T09:36:45.748Z,11124.00
2022-09-12T09:37:45.689Z,10248.00
2022-09-12T09:38:45.792Z,10108.00
2022-09-12T09:39:45.775Z,9388.00
2022-09-12T09:40:45.668Z,8896.00
2022-09-12T09:41:45.670Z,8144.00
2022-09-12T09:42:45.663Z,8172.00
2022-09-12T09:43:45.636Z,7716.00
2022-09-12T09:44:45.658Z,7820.00
2022-09-12T09:45:47.833Z,7712.00
2022-09-12T09:46:45.626Z,7700.00
2022-09-12T09:47:45.632Z,7656.00
2022-09-12T09:48:45.657Z,7524.00
2022-09-12T09:49:45.616Z,7360.00
2022-09-12T09:50:45.629Z,7292.00
2022-09-12T09:51:45.619Z,7180.00
2022-09-12T09:52:45.602Z,7280.00
2022-09-12T09:53:45.595Z,7304.00
2022-09-12T09:54:45.618Z,7284.00
2022-09-12T09:55:45.616Z,7284.00
2022-09-12T09:56:45.601Z,7248.00
2022-09-12T09:57:45.567Z,7128.00
2022-09-12T09:58:45.589Z,6996.00
2022-09-12T09:59:45.559Z,6836.00
2022-09-12T10:00:45.565Z,6788.00
2022-09-12T10:01:45.629Z,6900.00
2022-09-12T10:02:45.598Z,6936.00
2022-09-12T10:03:45.645Z,6928.00
2022-09-12T10:04:45.745Z,6888.00
2022-09-12T10:05:45.737Z,6900.00
2022-09-12T10:06:45.548Z,6864.00
2022-09-12T10:07:45.522Z,6780.00
2022-09-12T10:08:46.142Z,6760.00
2022-09-12T10:09:45.893Z,6796.00
2022-09-12T10:10:45.780Z,6832.00
2022-09-12T10:11:46.203Z,6864.00
2022-09-12T10:12:45.551Z,6808.00
2022-09-12T10:13:45.499Z,6816.00
2022-09-12T10:14:45.512Z,6796.00
2022-09-12T10:15:45.695Z,6488.00
2022-09-12T10:16:45.492Z,6640.00
2022-09-12T10:17:45.488Z,6596.00
2022-09-12T10:18:45.487Z,6632.00
2022-09-12T10:19:49.874Z,6676.00
2022-09-12T10:20:45.698Z,6584.00
2022-09-12T10:21:46.065Z,6608.00
2022-09-12T10:22:45.868Z,6464.00
2022-09-12T10:23:45.536Z,6340.00
2022-09-12T10:24:45.450Z,6288.00
2022-09-12T10:25:45.453Z,6300.00
2022-09-12T10:26:45.455Z,6252.00
2022-09-12T10:27:45.462Z,6132.00
2022-09-12T10:28:45.561Z,6004.00
2022-09-12T10:29:45.458Z,5836.00
2022-09-12T10:30:45.459Z,5864.00
2022-09-12T10:31:45.440Z,5896.00
2022-09-12T10:32:45.443Z,6008.00
2022-09-12T10:33:45.533Z,6080.00
2022-09-12T10:34:45.410Z,6044.00
2022-09-12T10:35:45.407Z,6068.00
2022-09-12T10:36:45.419Z,6024.00
2022-09-12T10:37:47.458Z,5968.00
2022-09-12T10:38:45.407Z,6008.00
2022-09-12T10:39:45.409Z,6020.00
2022-09-12T10:40:45.402Z,5968.00
2022-09-12T10:41:45.592Z,5860.00
2022-09-12T10:42:45.392Z,5828.00
2022-09-12T10:43:45.549Z,5796.00
2022-09-12T10:44:45.564Z,5676.00
2022-09-12T10:45:45.420Z,5512.00
2022-09-12T10:46:45.357Z,5480.00
2022-09-12T10:47:45.362Z,5488.00
2022-09-12T10:48:45.363Z,5428.00
2022-09-12T10:49:45.550Z,5472.00
2022-09-12T10:50:45.346Z,5364.00
2022-09-12T10:51:45.347Z,5492.00
2022-09-12T10:52:45.338Z,5404.00
2022-09-12T10:53:45.393Z,5372.00
2022-09-12T10:54:45.357Z,5180.00
2022-09-12T10:55:45.335Z,5356.00
2022-09-12T10:56:45.328Z,5420.00
2022-09-12T10:57:45.323Z,5376.00
2022-09-12T10:58:45.345Z,5396.00
2022-09-12T10:59:45.350Z,5412.00
2022-09-12T11:00:45.333Z,5384.00
2022-09-12T11:01:45.344Z,5408.00
2022-09-12T11:02:45.619Z,5300.00
2022-09-12T11:03:45.377Z,5244.00
2022-09-12T11:04:45.322Z,5132.00
2022-09-12T11:05:45.319Z,5120.00
2022-09-12T11:06:45.326Z,5100.00
2022-09-12T11:07:45.354Z,5188.00
2022-09-12T11:08:45.319Z,5176.00
2022-09-12T11:09:45.291Z,5128.00
2022-09-12T11:10:45.290Z,5080.00
2022-09-12T11:11:45.504Z,5036.00
2022-09-12T11:12:45.456Z,4904.00
2022-09-12T11:13:45.310Z,4964.00
2022-09-12T11:14:45.274Z,5036.00
2022-09-12T11:15:45.326Z,5104.00
2022-09-12T11:16:45.272Z,4904.00
2022-09-12T11:17:45.251Z,4864.00
2022-09-12T11:18:45.268Z,4784.00
2022-09-12T11:19:45.231Z,4688.00
2022-09-12T11:20:45.215Z,4800.00
2022-09-12T11:21:45.245Z,4784.00
2022-09-12T11:22:45.237Z,4816.00
2022-09-12T11:23:45.445Z,4832.00
2022-09-12T11:24:45.414Z,4788.00
2022-09-12T11:25:45.439Z,4776.00
2022-09-12T11:26:45.222Z,4728.00
2022-09-12T11:27:45.246Z,4676.00
2022-09-12T11:28:47.314Z,4736.00
2022-09-12T11:29:45.387Z,4748.00
2022-09-12T11:30:45.503Z,4732.00
2022-09-12T11:31:45.476Z,4712.00
2022-09-12T11:32:45.201Z,4552.00
2022-09-12T11:33:45.415Z,4380.00
2022-09-12T11:34:45.193Z,4512.00
2022-09-12T11:35:45.214Z,4576.00
2022-09-12T11:36:45.188Z,4504.00
2022-09-12T11:37:45.189Z,4400.00
2022-09-12T11:38:45.305Z,4332.00
2022-09-12T11:39:45.216Z,4384.00
2022-09-12T11:40:45.168Z,4564.00
2022-09-12T11:41:45.163Z,4556.00
2022-09-12T11:42:45.159Z,4544.00
2022-09-12T11:43:45.205Z,4568.00
2022-09-12T11:44:45.191Z,4532.00
2022-09-12T11:45:45.196Z,4476.00
2022-09-12T11:46:47.697Z,4496.00
2022-09-12T11:47:45.149Z,4484.00
2022-09-12T11:48:45.252Z,4532.00
2022-09-12T11:49:45.183Z,4500.00
2022-09-12T11:50:45.334Z,4516.00
2022-09-12T11:51:45.111Z,4556.00
2022-09-12T11:52:45.114Z,4576.00
2022-09-12T11:53:45.224Z,4552.00
2022-09-12T11:54:45.120Z,4568.00
2022-09-12T11:55:45.108Z,4508.00
2022-09-12T11:56:45.093Z,4336.00
2022-09-12T11:57:45.075Z,4300.00
2022-09-12T11:58:45.161Z,4312.00
2022-09-12T11:59:45.120Z,4308.00
2022-09-12T12:00:45.072Z,4252.00
2022-09-12T12:01:48.591Z,4240.00
2022-09-12T12:02:45.210Z,4276.00
2022-09-12T12:03:45.156Z,4308.00
2022-09-12T12:04:45.082Z,4292.00
2022-09-12T12:05:45.063Z,4276.00
2022-09-12T12:06:45.091Z,4176.00
2022-09-12T12:07:45.831Z,4128.00
2022-09-12T12:08:45.084Z,4168.00
2022-09-12T12:09:45.094Z,4148.00
2022-09-12T12:10:45.032Z,4124.00
2022-09-12T12:11:45.084Z,4128.00
2022-09-12T12:12:45.061Z,4088.00
2022-09-12T12:13:45.067Z,4008.00
2022-09-12T12:14:45.039Z,4004.00
2022-09-12T12:15:45.087Z,3996.00
2022-09-12T12:16:45.053Z,4032.00
2022-09-12T12:17:45.079Z,4044.00
2022-09-12T12:18:45.075Z,4096.00
2022-09-12T12:19:45.157Z,4152.00
2022-09-12T12:20:45.034Z,4080.00
2022-09-12T12:21:45.017Z,4120.00
2022-09-12T12:22:44.995Z,4144.00
2022-09-12T12:23:45.027Z,4160.00
2022-09-12T12:24:45.090Z,4168.00
2022-09-12T12:25:45.015Z,4188.00
2022-09-12T12:26:44.996Z,4176.00
2022-09-12T12:27:44.989Z,4192.00
2022-09-12T12:28:45.125Z,4184.00
2022-09-12T12:29:45.010Z,4216.00
2022-09-12T12:30:45.038Z,4240.00
2022-09-12T12:31:45.025Z,4244.00
2022-09-12T12:32:44.976Z,4228.00
2022-09-12T12:33:44.990Z,4232.00
2022-09-12T12:34:45.000Z,4216.00
2022-09-12T12:35:45.108Z,4220.00
2022-09-12T12:36:44.957Z,4152.00
2022-09-12T12:37:44.996Z,4192.00
2022-09-12T12:38:45.026Z,4204.00
2022-09-12T12:39:45.009Z,4180.00
2022-09-12T12:40:44.980Z,4196.00
2022-09-12T12:41:44.951Z,4208.00
2022-09-12T12:42:45.171Z,4216.00
2022-09-12T12:43:45.032Z,4220.00
2022-09-12T12:44:44.939Z,4176.00
2022-09-12T12:45:44.924Z,4152.00
2022-09-12T12:46:44.979Z,4100.00
2022-09-12T12:47:44.950Z,4060.00
2022-09-12T12:48:44.931Z,4036.00
2022-09-12T12:49:44.903Z,4044.00
2022-09-12T12:50:44.901Z,4036.00
2022-09-12T12:51:44.930Z,4048.00
2022-09-12T12:52:44.942Z,4084.00
2022-09-12T12:53:44.963Z,4060.00
2022-09-12T12:54:44.930Z,4008.00
2022-09-12T12:55:44.922Z,4000.00
2022-09-12T12:56:44.956Z,3924.00
2022-09-12T12:57:44.915Z,3940.00
2022-09-12T12:58:44.955Z,3952.00
2022-09-12T12:59:44.899Z,3984.00
2022-09-12T13:00:44.877Z,3972.00
2022-09-12T13:01:44.915Z,4004.00
2022-09-12T13:02:45.003Z,4076.00
2022-09-12T13:03:44.873Z,4080.00
2022-09-12T13:04:44.928Z,4092.00
2022-09-12T13:05:44.889Z,4080.00
2022-09-12T13:06:44.851Z,4044.00
2022-09-12T13:07:44.881Z,4052.00
2022-09-12T13:08:44.884Z,4048.00
2022-09-12T13:09:44.840Z,4076.00
2022-09-12T13:10:48.419Z,4084.00
2022-09-12T13:11:44.848Z,4044.00
2022-09-12T13:12:44.830Z,4016.00
2022-09-12T13:13:44.856Z,4004.00
2022-09-12T13:14:44.839Z,4012.00
2022-09-12T13:15:44.909Z,4016.00
2022-09-12T13:16:44.825Z,4004.00
2022-09-12T13:17:44.802Z,3992.00
2022-09-12T13:18:44.869Z,3980.00
2022-09-12T13:19:44.824Z,3944.00
2022-09-12T13:20:44.799Z,3912.00
2022-09-12T13:21:45.032Z,3864.00
2022-09-12T13:22:44.808Z,3796.00
2022-09-12T13:23:44.866Z,3740.00
2022-09-12T13:24:45.016Z,3700.00
2022-09-12T13:25:44.834Z,3668.00
2022-09-12T13:26:44.776Z,3644.00
2022-09-12T13:27:45.011Z,3628.00
2022-09-12T13:28:44.797Z,3612.00
2022-09-12T13:29:44.797Z,3612.00
2022-09-12T13:30:45.235Z,3584.00
2022-09-12T13:31:47.381Z,3552.00
2022-09-12T13:32:44.790Z,3508.00
2022-09-12T13:33:44.782Z,3480.00
2022-09-12T13:34:44.799Z,3448.00
2022-09-12T13:35:44.761Z,3408.00
2022-09-12T13:36:44.766Z,3376.00
2022-09-12T13:37:47.582Z,3352.00
2022-09-12T13:38:44.780Z,3324.00
2022-09-12T13:39:44.876Z,3296.00
2022-09-12T13:40:44.738Z,3276.00
2022-09-12T13:41:44.750Z,3264.00
2022-09-12T13:42:44.728Z,3284.00
2022-09-12T13:43:44.739Z,3300.00
2022-09-12T13:44:44.741Z,3284.00
2022-09-12T13:45:44.726Z,3280.00
2022-09-12T13:46:44.703Z,3272.00
2022-09-12T13:47:44.707Z,3276.00
2022-09-12T13:48:44.818Z,3224.00
2022-09-12T13:49:44.698Z,3240.00
2022-09-12T13:50:44.675Z,3260.00
2022-09-12T13:51:44.697Z,3284.00
2022-09-12T13:52:44.678Z,3280.00
2022-09-12T13:53:44.704Z,3264.00
2022-09-12T13:54:44.692Z,3264.00
2022-09-12T13:55:44.695Z,3260.00
2022-09-12T13:56:44.703Z,3284.00
2022-09-12T13:57:44.698Z,3268.00
2022-09-12T13:58:44.724Z,3284.00
2022-09-12T13:59:44.669Z,3340.00
2022-09-12T14:00:44.660Z,3364.00
2022-09-12T14:01:44.679Z,3416.00
2022-09-12T14:02:44.708Z,3400.00
2022-09-12T14:03:44.656Z,3424.00
2022-09-12T14:04:44.685Z,3372.00
2022-09-12T14:05:44.631Z,3400.00
2022-09-12T14:06:44.628Z,3432.00
2022-09-12T14:07:44.633Z,3476.00
2022-09-12T14:08:44.719Z,3480.00
2022-09-12T14:09:44.614Z,3484.00
2022-09-12T14:10:44.600Z,3460.00
2022-09-12T14:11:44.615Z,3372.00
2022-09-12T14:12:44.606Z,3324.00
2022-09-12T14:13:44.606Z,3348.00
2022-09-12T14:14:44.622Z,3244.00
2022-09-12T14:15:44.869Z,3088.00
2022-09-12T14:16:44.617Z,3040.00
2022-09-12T14:17:44.618Z,3016.00
2022-09-12T14:18:44.590Z,2996.00
2022-09-12T14:19:44.590Z,2964.00
2022-09-12T14:20:44.708Z,2928.00
2022-09-12T14:21:44.563Z,2892.00
2022-09-12T14:22:48.183Z,2840.00
2022-09-12T14:23:44.623Z,2812.00
2022-09-12T14:24:44.574Z,2792.00
2022-09-12T14:25:44.577Z,2772.00
2022-09-12T14:26:44.582Z,2768.00
2022-09-12T14:27:44.570Z,2760.00
2022-09-12T14:28:44.638Z,2756.00
2022-09-12T14:29:44.572Z,2708.00
2022-09-12T14:30:44.575Z,2708.00
2022-09-12T14:31:44.550Z,2716.00
2022-09-12T14:32:44.559Z,2700.00
2022-09-12T14:33:44.545Z,2664.00